Rechercher aéroport 
image banner adimage banner adimage banner ad
image banner ad

0CL3 - John Nichol's Field

Situé à Chula Vista, United States

ICAO - 0CL3, IATA -

Données fournies par Airmate  

Information générale

Coordonnées: N32°38'0" W116°53'25"
Élévation : 500 feet MSL.
Variation magnétique : 13° East
Voir autres Aéroports à California

Données opérationnelles

Special qualification required
Heure actuelle UTC:
Heure actuelle locale:
Météo à : KSDM - Brown Field Muni ( 11 km )
METAR: KSDM 300053Z 28008KT 10SM CLR 26/14 A2987 RMK AO2 SLP110 T02610139
Voir NOTAMs / SUP AIP / TFR affectant cet aéroport [VIEW]
Fréquences de communication: [VIEW]

Pistes:

Identifiant RWYQFULongueur (ft)Largeur (ft)SurfaceLDA (ft)
09203630ASPH
27203630ASPH

Coordonnées de l'aéroport

Adresse: Chula Vista United States

Vue satellite de 0CL3